sensor_id;sensor_type;location;lat;lon;timestamp;P1;durP1;ratioP1;P2;durP2;ratioP2
58661;SDS011;44432;49.786;22.760;2023-11-19T00:01:26;21.50;;;12.10;;
58661;SDS011;44432;49.786;22.760;2023-11-19T00:03:54;20.60;;;13.80;;
58661;SDS011;44432;49.786;22.760;2023-11-19T00:06:23;20.50;;;12.70;;
58661;SDS011;44432;49.786;22.760;2023-11-19T00:08:52;19.70;;;12.50;;
58661;SDS011;44432;49.786;22.760;2023-11-19T00:11:20;18.00;;;11.40;;
58661;SDS011;44432;49.786;22.760;2023-11-19T00:13:48;17.40;;;11.40;;
58661;SDS011;44432;49.786;22.760;2023-11-19T00:16:17;17.20;;;11.60;;
58661;SDS011;44432;49.786;22.760;2023-11-19T00:18:45;16.90;;;11.00;;
58661;SDS011;44432;49.786;22.760;2023-11-19T00:21:14;17.30;;;11.40;;
58661;SDS011;44432;49.786;22.760;2023-11-19T00:23:43;17.90;;;11.70;;
58661;SDS011;44432;49.786;22.760;2023-11-19T00:26:11;17.90;;;11.40;;
58661;SDS011;44432;49.786;22.760;2023-11-19T00:28:41;17.50;;;12.00;;
58661;SDS011;44432;49.786;22.760;2023-11-19T00:31:10;22.30;;;15.00;;
58661;SDS011;44432;49.786;22.760;2023-11-19T00:33:38;17.20;;;12.60;;
58661;SDS011;44432;49.786;22.760;2023-11-19T00:36:08;17.00;;;11.50;;
58661;SDS011;44432;49.786;22.760;2023-11-19T00:38:36;17.20;;;10.60;;
58661;SDS011;44432;49.786;22.760;2023-11-19T00:41:05;18.00;;;11.50;;
58661;SDS011;44432;49.786;22.760;2023-11-19T00:43:33;16.20;;;10.30;;
58661;SDS011;44432;49.786;22.760;2023-11-19T00:46:02;16.30;;;11.10;;
58661;SDS011;44432;49.786;22.760;2023-11-19T00:48:34;16.00;;;10.70;;
58661;SDS011;44432;49.786;22.760;2023-11-19T00:51:02;14.70;;;10.20;;
58661;SDS011;44432;49.786;22.760;2023-11-19T00:53:31;14.80;;;10.60;;
58661;SDS011;44432;49.786;22.760;2023-11-19T00:56:00;14.80;;;10.20;;
58661;SDS011;44432;49.786;22.760;2023-11-19T00:58:28;15.50;;;10.90;;
58661;SDS011;44432;49.786;22.760;2023-11-19T01:00:57;16.60;;;10.50;;
58661;SDS011;44432;49.786;22.760;2023-11-19T01:03:26;15.70;;;10.30;;
58661;SDS011;44432;49.786;22.760;2023-11-19T01:05:54;16.00;;;10.60;;
58661;SDS011;44432;49.786;22.760;2023-11-19T01:08:23;15.80;;;10.90;;
58661;SDS011;44432;49.786;22.760;2023-11-19T01:10:51;15.90;;;10.60;;
58661;SDS011;44432;49.786;22.760;2023-11-19T01:13:20;15.30;;;10.80;;
58661;SDS011;44432;49.786;22.760;2023-11-19T01:15:48;18.30;;;12.10;;
58661;SDS011;44432;49.786;22.760;2023-11-19T01:18:16;15.80;;;10.50;;
58661;SDS011;44432;49.786;22.760;2023-11-19T01:20:45;13.80;;;9.80;;
58661;SDS011;44432;49.786;22.760;2023-11-19T01:23:13;15.90;;;10.50;;
58661;SDS011;44432;49.786;22.760;2023-11-19T01:25:42;17.10;;;11.10;;
58661;SDS011;44432;49.786;22.760;2023-11-19T01:28:10;15.40;;;10.80;;
58661;SDS011;44432;49.786;22.760;2023-11-19T01:30:38;15.70;;;9.70;;
58661;SDS011;44432;49.786;22.760;2023-11-19T01:33:07;16.80;;;10.70;;
58661;SDS011;44432;49.786;22.760;2023-11-19T01:35:36;17.00;;;11.10;;
58661;SDS011;44432;49.786;22.760;2023-11-19T01:38:04;16.00;;;10.50;;
58661;SDS011;44432;49.786;22.760;2023-11-19T01:40:35;16.90;;;11.70;;
58661;SDS011;44432;49.786;22.760;2023-11-19T01:43:03;15.10;;;10.00;;
58661;SDS011;44432;49.786;22.760;2023-11-19T01:45:32;17.30;;;11.30;;
58661;SDS011;44432;49.786;22.760;2023-11-19T01:48:02;15.50;;;10.80;;
58661;SDS011;44432;49.786;22.760;2023-11-19T01:50:32;16.10;;;10.70;;
58661;SDS011;44432;49.786;22.760;2023-11-19T01:53:02;16.00;;;10.80;;
58661;SDS011;44432;49.786;22.760;2023-11-19T01:55:30;17.10;;;10.30;;
58661;SDS011;44432;49.786;22.760;2023-11-19T01:57:59;16.00;;;10.90;;
58661;SDS011;44432;49.786;22.760;2023-11-19T02:00:29;16.90;;;11.40;;
58661;SDS011;44432;49.786;22.760;2023-11-19T02:03:00;18.00;;;11.50;;
58661;SDS011;44432;49.786;22.760;2023-11-19T02:05:30;18.50;;;12.40;;
58661;SDS011;44432;49.786;22.760;2023-11-19T02:07:59;19.90;;;12.90;;
58661;SDS011;44432;49.786;22.760;2023-11-19T02:10:27;19.40;;;12.90;;
58661;SDS011;44432;49.786;22.760;2023-11-19T02:12:56;18.50;;;11.00;;
58661;SDS011;44432;49.786;22.760;2023-11-19T02:15:24;18.40;;;11.30;;
58661;SDS011;44432;49.786;22.760;2023-11-19T02:17:53;16.70;;;10.40;;
58661;SDS011;44432;49.786;22.760;2023-11-19T02:20:21;15.80;;;10.40;;
58661;SDS011;44432;49.786;22.760;2023-11-19T02:22:51;15.90;;;10.60;;
58661;SDS011;44432;49.786;22.760;2023-11-19T02:25:25;17.40;;;10.80;;
58661;SDS011;44432;49.786;22.760;2023-11-19T02:27:59;16.00;;;10.90;;
58661;SDS011;44432;49.786;22.760;2023-11-19T02:30:29;17.00;;;11.40;;
58661;SDS011;44432;49.786;22.760;2023-11-19T02:32:58;17.70;;;11.50;;
58661;SDS011;44432;49.786;22.760;2023-11-19T02:35:32;17.40;;;10.80;;
58661;SDS011;44432;49.786;22.760;2023-11-19T02:38:00;16.30;;;11.30;;
58661;SDS011;44432;49.786;22.760;2023-11-19T02:40:30;15.70;;;11.10;;
58661;SDS011;44432;49.786;22.760;2023-11-19T02:42:58;17.80;;;11.70;;
58661;SDS011;44432;49.786;22.760;2023-11-19T02:45:27;16.50;;;11.20;;
58661;SDS011;44432;49.786;22.760;2023-11-19T02:47:57;17.20;;;12.20;;
58661;SDS011;44432;49.786;22.760;2023-11-19T02:50:28;17.90;;;11.20;;
58661;SDS011;44432;49.786;22.760;2023-11-19T02:52:56;19.00;;;12.00;;
58661;SDS011;44432;49.786;22.760;2023-11-19T02:55:24;16.40;;;10.90;;
58661;SDS011;44432;49.786;22.760;2023-11-19T02:57:56;17.60;;;11.40;;
58661;SDS011;44432;49.786;22.760;2023-11-19T03:00:26;17.10;;;11.70;;
58661;SDS011;44432;49.786;22.760;2023-11-19T03:03:02;17.10;;;11.20;;
58661;SDS011;44432;49.786;22.760;2023-11-19T03:05:44;15.80;;;10.80;;
58661;SDS011;44432;49.786;22.760;2023-11-19T03:08:13;18.20;;;12.00;;
58661;SDS011;44432;49.786;22.760;2023-11-19T03:10:42;17.40;;;12.20;;
58661;SDS011;44432;49.786;22.760;2023-11-19T03:13:12;18.10;;;12.50;;
58661;SDS011;44432;49.786;22.760;2023-11-19T03:15:41;20.10;;;12.60;;
58661;SDS011;44432;49.786;22.760;2023-11-19T03:18:09;19.40;;;11.90;;
58661;SDS011;44432;49.786;22.760;2023-11-19T03:20:37;18.30;;;11.80;;
58661;SDS011;44432;49.786;22.760;2023-11-19T03:23:06;17.10;;;11.80;;
58661;SDS011;44432;49.786;22.760;2023-11-19T03:25:35;17.60;;;11.80;;
58661;SDS011;44432;49.786;22.760;2023-11-19T03:28:04;17.50;;;11.70;;
58661;SDS011;44432;49.786;22.760;2023-11-19T03:30:33;19.20;;;12.40;;
58661;SDS011;44432;49.786;22.760;2023-11-19T03:33:01;17.10;;;12.10;;
58661;SDS011;44432;49.786;22.760;2023-11-19T03:35:30;19.50;;;11.30;;
58661;SDS011;44432;49.786;22.760;2023-11-19T03:37:59;15.90;;;10.90;;
58661;SDS011;44432;49.786;22.760;2023-11-19T03:40:28;16.20;;;10.70;;
58661;SDS011;44432;49.786;22.760;2023-11-19T03:42:56;17.70;;;11.40;;
58661;SDS011;44432;49.786;22.760;2023-11-19T03:45:25;17.00;;;10.90;;
58661;SDS011;44432;49.786;22.760;2023-11-19T03:47:53;18.30;;;11.60;;
58661;SDS011;44432;49.786;22.760;2023-11-19T03:50:22;20.80;;;12.00;;
58661;SDS011;44432;49.786;22.760;2023-11-19T03:52:50;16.70;;;10.50;;
58661;SDS011;44432;49.786;22.760;2023-11-19T03:55:19;18.10;;;11.50;;
58661;SDS011;44432;49.786;22.760;2023-11-19T03:57:47;21.40;;;12.30;;
58661;SDS011;44432;49.786;22.760;2023-11-19T04:00:16;16.20;;;11.00;;
58661;SDS011;44432;49.786;22.760;2023-11-19T04:02:47;17.10;;;10.90;;
58661;SDS011;44432;49.786;22.760;2023-11-19T04:05:16;18.10;;;11.50;;
58661;SDS011;44432;49.786;22.760;2023-11-19T04:07:45;17.40;;;11.60;;
58661;SDS011;44432;49.786;22.760;2023-11-19T04:10:14;17.60;;;11.50;;
58661;SDS011;44432;49.786;22.760;2023-11-19T04:12:43;17.10;;;11.70;;
58661;SDS011;44432;49.786;22.760;2023-11-19T04:15:13;17.60;;;11.70;;
58661;SDS011;44432;49.786;22.760;2023-11-19T04:17:41;18.50;;;11.70;;
58661;SDS011;44432;49.786;22.760;2023-11-19T04:20:11;19.40;;;11.50;;
58661;SDS011;44432;49.786;22.760;2023-11-19T04:22:40;18.40;;;11.70;;
58661;SDS011;44432;49.786;22.760;2023-11-19T04:25:08;17.00;;;11.50;;
58661;SDS011;44432;49.786;22.760;2023-11-19T04:27:37;17.70;;;11.20;;
58661;SDS011;44432;49.786;22.760;2023-11-19T04:30:07;17.00;;;11.30;;
58661;SDS011;44432;49.786;22.760;2023-11-19T04:32:37;18.20;;;11.50;;
58661;SDS011;44432;49.786;22.760;2023-11-19T04:35:07;17.90;;;12.00;;
58661;SDS011;44432;49.786;22.760;2023-11-19T04:37:36;20.40;;;13.00;;
58661;SDS011;44432;49.786;22.760;2023-11-19T04:40:05;21.00;;;12.80;;
58661;SDS011;44432;49.786;22.760;2023-11-19T04:42:34;17.90;;;12.10;;
58661;SDS011;44432;49.786;22.760;2023-11-19T04:45:03;17.40;;;11.90;;
58661;SDS011;44432;49.786;22.760;2023-11-19T04:47:33;20.50;;;12.50;;
58661;SDS011;44432;49.786;22.760;2023-11-19T04:50:02;18.50;;;11.10;;
58661;SDS011;44432;49.786;22.760;2023-11-19T04:52:31;16.40;;;11.20;;
58661;SDS011;44432;49.786;22.760;2023-11-19T04:54:59;17.90;;;11.50;;
58661;SDS011;44432;49.786;22.760;2023-11-19T04:57:28;20.20;;;13.10;;
58661;SDS011;44432;49.786;22.760;2023-11-19T04:59:56;17.00;;;11.40;;
58661;SDS011;44432;49.786;22.760;2023-11-19T05:02:24;18.70;;;12.10;;
58661;SDS011;44432;49.786;22.760;2023-11-19T05:04:53;19.30;;;11.40;;
58661;SDS011;44432;49.786;22.760;2023-11-19T05:07:21;20.20;;;12.90;;
58661;SDS011;44432;49.786;22.760;2023-11-19T05:09:49;19.60;;;12.70;;
58661;SDS011;44432;49.786;22.760;2023-11-19T05:12:18;18.60;;;12.30;;
58661;SDS011;44432;49.786;22.760;2023-11-19T05:14:46;18.10;;;12.50;;
58661;SDS011;44432;49.786;22.760;2023-11-19T05:17:17;18.20;;;12.20;;
58661;SDS011;44432;49.786;22.760;2023-11-19T05:19:45;18.70;;;11.50;;
58661;SDS011;44432;49.786;22.760;2023-11-19T05:22:15;18.60;;;12.10;;
58661;SDS011;44432;49.786;22.760;2023-11-19T05:24:44;17.70;;;12.20;;
58661;SDS011;44432;49.786;22.760;2023-11-19T05:27:12;16.70;;;12.00;;
58661;SDS011;44432;49.786;22.760;2023-11-19T05:29:41;18.10;;;11.50;;
58661;SDS011;44432;49.786;22.760;2023-11-19T05:32:14;17.90;;;11.30;;
58661;SDS011;44432;49.786;22.760;2023-11-19T05:34:42;20.50;;;12.50;;
58661;SDS011;44432;49.786;22.760;2023-11-19T05:37:10;18.00;;;11.50;;
58661;SDS011;44432;49.786;22.760;2023-11-19T05:39:39;20.20;;;12.80;;
58661;SDS011;44432;49.786;22.760;2023-11-19T05:42:07;17.60;;;11.50;;
58661;SDS011;44432;49.786;22.760;2023-11-19T05:44:37;18.90;;;12.40;;
58661;SDS011;44432;49.786;22.760;2023-11-19T05:47:05;17.60;;;11.80;;
58661;SDS011;44432;49.786;22.760;2023-11-19T05:49:33;19.00;;;12.00;;
58661;SDS011;44432;49.786;22.760;2023-11-19T05:52:02;18.00;;;12.40;;
58661;SDS011;44432;49.786;22.760;2023-11-19T05:54:34;18.40;;;12.10;;
58661;SDS011;44432;49.786;22.760;2023-11-19T05:57:04;18.60;;;12.80;;
58661;SDS011;44432;49.786;22.760;2023-11-19T05:59:35;18.60;;;12.20;;
58661;SDS011;44432;49.786;22.760;2023-11-19T06:02:04;17.80;;;11.70;;
58661;SDS011;44432;49.786;22.760;2023-11-19T06:04:33;19.80;;;12.50;;
58661;SDS011;44432;49.786;22.760;2023-11-19T06:07:02;19.90;;;12.80;;
58661;SDS011;44432;49.786;22.760;2023-11-19T06:09:31;18.60;;;12.10;;
58661;SDS011;44432;49.786;22.760;2023-11-19T06:12:00;20.00;;;12.40;;
58661;SDS011;44432;49.786;22.760;2023-11-19T06:14:29;20.20;;;12.60;;
58661;SDS011;44432;49.786;22.760;2023-11-19T06:16:57;21.70;;;13.10;;
58661;SDS011;44432;49.786;22.760;2023-11-19T06:19:26;19.50;;;12.70;;
58661;SDS011;44432;49.786;22.760;2023-11-19T06:21:55;22.70;;;13.30;;
58661;SDS011;44432;49.786;22.760;2023-11-19T06:24:23;22.10;;;14.20;;
58661;SDS011;44432;49.786;22.760;2023-11-19T06:26:52;20.50;;;13.90;;
58661;SDS011;44432;49.786;22.760;2023-11-19T06:29:20;23.00;;;13.60;;
58661;SDS011;44432;49.786;22.760;2023-11-19T06:31:49;26.30;;;15.90;;
58661;SDS011;44432;49.786;22.760;2023-11-19T06:34:17;22.90;;;14.10;;
58661;SDS011;44432;49.786;22.760;2023-11-19T06:36:46;25.60;;;16.20;;
58661;SDS011;44432;49.786;22.760;2023-11-19T06:39:14;40.80;;;25.80;;
58661;SDS011;44432;49.786;22.760;2023-11-19T06:41:45;32.20;;;22.40;;
58661;SDS011;44432;49.786;22.760;2023-11-19T06:44:13;33.00;;;21.30;;
58661;SDS011;44432;49.786;22.760;2023-11-19T06:46:42;29.10;;;17.90;;
58661;SDS011;44432;49.786;22.760;2023-11-19T06:49:10;23.90;;;15.80;;
58661;SDS011;44432;49.786;22.760;2023-11-19T06:51:41;21.30;;;14.80;;
58661;SDS011;44432;49.786;22.760;2023-11-19T06:54:10;19.70;;;13.30;;
58661;SDS011;44432;49.786;22.760;2023-11-19T06:56:38;24.50;;;15.40;;
58661;SDS011;44432;49.786;22.760;2023-11-19T06:59:08;21.80;;;15.30;;
58661;SDS011;44432;49.786;22.760;2023-11-19T07:01:36;20.00;;;14.00;;
58661;SDS011;44432;49.786;22.760;2023-11-19T07:04:05;22.00;;;13.70;;
58661;SDS011;44432;49.786;22.760;2023-11-19T07:06:36;21.00;;;14.00;;
58661;SDS011;44432;49.786;22.760;2023-11-19T07:09:04;23.90;;;14.30;;
58661;SDS011;44432;49.786;22.760;2023-11-19T07:11:36;21.70;;;13.70;;
58661;SDS011;44432;49.786;22.760;2023-11-19T07:14:05;27.40;;;17.60;;
58661;SDS011;44432;49.786;22.760;2023-11-19T07:16:34;22.10;;;15.40;;
58661;SDS011;44432;49.786;22.760;2023-11-19T07:19:04;24.70;;;15.00;;
58661;SDS011;44432;49.786;22.760;2023-11-19T07:21:33;21.50;;;14.10;;
58661;SDS011;44432;49.786;22.760;2023-11-19T07:24:01;21.70;;;14.90;;
58661;SDS011;44432;49.786;22.760;2023-11-19T07:26:31;19.60;;;13.40;;
58661;SDS011;44432;49.786;22.760;2023-11-19T07:28:59;21.30;;;13.60;;
58661;SDS011;44432;49.786;22.760;2023-11-19T07:31:28;19.20;;;13.00;;
58661;SDS011;44432;49.786;22.760;2023-11-19T07:33:57;18.30;;;12.50;;
58661;SDS011;44432;49.786;22.760;2023-11-19T07:36:25;18.40;;;12.50;;
58661;SDS011;44432;49.786;22.760;2023-11-19T07:38:54;17.80;;;12.00;;
58661;SDS011;44432;49.786;22.760;2023-11-19T07:41:24;18.90;;;12.80;;
58661;SDS011;44432;49.786;22.760;2023-11-19T07:43:52;21.10;;;12.90;;
58661;SDS011;44432;49.786;22.760;2023-11-19T07:46:22;31.90;;;16.90;;
58661;SDS011;44432;49.786;22.760;2023-11-19T07:48:51;26.20;;;16.60;;
58661;SDS011;44432;49.786;22.760;2023-11-19T07:51:20;19.20;;;12.80;;
58661;SDS011;44432;49.786;22.760;2023-11-19T07:53:48;16.60;;;11.80;;
58661;SDS011;44432;49.786;22.760;2023-11-19T07:56:16;23.60;;;15.20;;
58661;SDS011;44432;49.786;22.760;2023-11-19T07:58:45;23.20;;;14.30;;
58661;SDS011;44432;49.786;22.760;2023-11-19T08:01:15;23.90;;;14.20;;
58661;SDS011;44432;49.786;22.760;2023-11-19T08:03:44;21.60;;;13.30;;
58661;SDS011;44432;49.786;22.760;2023-11-19T08:06:12;18.00;;;12.50;;
58661;SDS011;44432;49.786;22.760;2023-11-19T08:08:40;19.70;;;12.80;;
58661;SDS011;44432;49.786;22.760;2023-11-19T08:11:09;22.40;;;13.60;;
58661;SDS011;44432;49.786;22.760;2023-11-19T08:13:37;17.70;;;11.40;;
58661;SDS011;44432;49.786;22.760;2023-11-19T08:16:07;19.50;;;13.00;;
58661;SDS011;44432;49.786;22.760;2023-11-19T08:18:36;24.50;;;14.60;;
58661;SDS011;44432;49.786;22.760;2023-11-19T08:21:05;23.30;;;13.00;;
58661;SDS011;44432;49.786;22.760;2023-11-19T08:23:33;18.70;;;11.60;;
58661;SDS011;44432;49.786;22.760;2023-11-19T08:26:03;22.30;;;13.30;;
58661;SDS011;44432;49.786;22.760;2023-11-19T08:28:32;18.80;;;11.80;;
58661;SDS011;44432;49.786;22.760;2023-11-19T08:31:01;21.40;;;13.70;;
58661;SDS011;44432;49.786;22.760;2023-11-19T08:33:31;18.50;;;12.10;;
58661;SDS011;44432;49.786;22.760;2023-11-19T08:36:00;16.40;;;10.80;;
58661;SDS011;44432;49.786;22.760;2023-11-19T08:38:30;15.20;;;10.10;;
58661;SDS011;44432;49.786;22.760;2023-11-19T08:40:58;16.60;;;9.30;;
58661;SDS011;44432;49.786;22.760;2023-11-19T08:43:27;14.70;;;9.40;;
58661;SDS011;44432;49.786;22.760;2023-11-19T08:45:57;16.30;;;10.50;;
58661;SDS011;44432;49.786;22.760;2023-11-19T08:48:26;15.00;;;10.60;;
58661;SDS011;44432;49.786;22.760;2023-11-19T08:50:54;19.10;;;11.70;;
58661;SDS011;44432;49.786;22.760;2023-11-19T08:53:23;18.20;;;11.80;;
58661;SDS011;44432;49.786;22.760;2023-11-19T08:55:51;17.20;;;10.60;;
58661;SDS011;44432;49.786;22.760;2023-11-19T08:58:19;15.70;;;9.80;;
58661;SDS011;44432;49.786;22.760;2023-11-19T09:00:48;17.60;;;11.00;;
58661;SDS011;44432;49.786;22.760;2023-11-19T09:03:17;15.40;;;10.80;;
58661;SDS011;44432;49.786;22.760;2023-11-19T09:05:46;16.00;;;10.60;;
58661;SDS011;44432;49.786;22.760;2023-11-19T09:08:15;17.70;;;11.40;;
58661;SDS011;44432;49.786;22.760;2023-11-19T09:10:43;18.40;;;11.20;;
58661;SDS011;44432;49.786;22.760;2023-11-19T09:13:11;17.50;;;11.60;;
58661;SDS011;44432;49.786;22.760;2023-11-19T09:15:40;18.10;;;12.60;;
58661;SDS011;44432;49.786;22.760;2023-11-19T09:18:09;16.20;;;11.40;;
58661;SDS011;44432;49.786;22.760;2023-11-19T09:20:37;18.90;;;12.70;;
58661;SDS011;44432;49.786;22.760;2023-11-19T09:23:06;17.40;;;12.60;;
58661;SDS011;44432;49.786;22.760;2023-11-19T09:25:35;18.10;;;11.80;;
58661;SDS011;44432;49.786;22.760;2023-11-19T09:28:04;17.80;;;12.90;;
58661;SDS011;44432;49.786;22.760;2023-11-19T09:30:32;23.90;;;15.70;;
58661;SDS011;44432;49.786;22.760;2023-11-19T09:33:00;18.30;;;11.40;;
58661;SDS011;44432;49.786;22.760;2023-11-19T09:35:29;15.20;;;10.50;;
58661;SDS011;44432;49.786;22.760;2023-11-19T09:37:57;19.40;;;11.70;;
58661;SDS011;44432;49.786;22.760;2023-11-19T09:40:26;18.50;;;11.90;;
58661;SDS011;44432;49.786;22.760;2023-11-19T09:42:55;16.70;;;12.10;;
58661;SDS011;44432;49.786;22.760;2023-11-19T09:45:25;17.20;;;12.10;;
58661;SDS011;44432;49.786;22.760;2023-11-19T09:47:56;17.70;;;11.50;;
58661;SDS011;44432;49.786;22.760;2023-11-19T09:50:28;15.20;;;9.80;;
58661;SDS011;44432;49.786;22.760;2023-11-19T09:52:58;16.00;;;11.50;;
58661;SDS011;44432;49.786;22.760;2023-11-19T09:55:34;16.00;;;11.40;;
58661;SDS011;44432;49.786;22.760;2023-11-19T09:58:02;18.50;;;12.50;;
58661;SDS011;44432;49.786;22.760;2023-11-19T10:00:32;17.90;;;11.50;;
58661;SDS011;44432;49.786;22.760;2023-11-19T10:03:01;19.00;;;12.00;;
58661;SDS011;44432;49.786;22.760;2023-11-19T10:05:32;15.50;;;10.30;;
58661;SDS011;44432;49.786;22.760;2023-11-19T10:08:01;16.70;;;10.40;;
58661;SDS011;44432;49.786;22.760;2023-11-19T10:10:30;16.60;;;11.10;;
58661;SDS011;44432;49.786;22.760;2023-11-19T10:12:58;14.40;;;9.90;;
58661;SDS011;44432;49.786;22.760;2023-11-19T10:15:27;20.30;;;12.80;;
58661;SDS011;44432;49.786;22.760;2023-11-19T10:18:02;17.10;;;11.00;;
58661;SDS011;44432;49.786;22.760;2023-11-19T10:20:35;18.10;;;12.50;;
58661;SDS011;44432;49.786;22.760;2023-11-19T10:23:04;19.60;;;12.60;;
58661;SDS011;44432;49.786;22.760;2023-11-19T10:25:32;16.70;;;10.70;;
58661;SDS011;44432;49.786;22.760;2023-11-19T10:28:01;15.20;;;10.20;;
58661;SDS011;44432;49.786;22.760;2023-11-19T10:30:30;17.50;;;12.10;;
58661;SDS011;44432;49.786;22.760;2023-11-19T10:33:04;19.90;;;12.80;;
58661;SDS011;44432;49.786;22.760;2023-11-19T10:35:33;20.00;;;10.70;;
58661;SDS011;44432;49.786;22.760;2023-11-19T10:38:13;17.50;;;11.40;;
58661;SDS011;44432;49.786;22.760;2023-11-19T10:40:42;21.10;;;14.10;;
58661;SDS011;44432;49.786;22.760;2023-11-19T10:43:10;23.90;;;13.20;;
58661;SDS011;44432;49.786;22.760;2023-11-19T10:45:39;21.00;;;14.10;;
58661;SDS011;44432;49.786;22.760;2023-11-19T10:48:08;26.20;;;15.90;;
58661;SDS011;44432;49.786;22.760;2023-11-19T10:50:37;24.00;;;14.40;;
58661;SDS011;44432;49.786;22.760;2023-11-19T10:53:06;16.80;;;11.30;;
58661;SDS011;44432;49.786;22.760;2023-11-19T10:55:36;15.60;;;10.50;;
58661;SDS011;44432;49.786;22.760;2023-11-19T10:58:05;16.80;;;10.70;;
58661;SDS011;44432;49.786;22.760;2023-11-19T11:00:40;20.00;;;12.20;;
58661;SDS011;44432;49.786;22.760;2023-11-19T11:03:15;17.70;;;11.70;;
58661;SDS011;44432;49.786;22.760;2023-11-19T11:05:46;20.80;;;12.50;;
58661;SDS011;44432;49.786;22.760;2023-11-19T11:08:15;17.30;;;10.50;;
58661;SDS011;44432;49.786;22.760;2023-11-19T11:10:46;20.40;;;13.00;;
58661;SDS011;44432;49.786;22.760;2023-11-19T11:13:22;15.40;;;9.60;;
58661;SDS011;44432;49.786;22.760;2023-11-19T11:15:51;14.20;;;9.30;;
58661;SDS011;44432;49.786;22.760;2023-11-19T11:18:21;13.10;;;8.80;;
58661;SDS011;44432;49.786;22.760;2023-11-19T11:20:51;12.30;;;8.80;;
58661;SDS011;44432;49.786;22.760;2023-11-19T11:23:46;12.20;;;8.20;;
58661;SDS011;44432;49.786;22.760;2023-11-19T11:26:41;11.60;;;7.50;;
58661;SDS011;44432;49.786;22.760;2023-11-19T11:29:39;22.20;;;13.40;;
58661;SDS011;44432;49.786;22.760;2023-11-19T11:32:30;17.70;;;9.30;;
58661;SDS011;44432;49.786;22.760;2023-11-19T11:35:16;14.60;;;10.50;;
58661;SDS011;44432;49.786;22.760;2023-11-19T11:37:57;17.30;;;10.90;;
58661;SDS011;44432;49.786;22.760;2023-11-19T11:40:30;17.20;;;10.60;;
58661;SDS011;44432;49.786;22.760;2023-11-19T11:42:58;16.50;;;10.80;;
58661;SDS011;44432;49.786;22.760;2023-11-19T11:45:36;17.80;;;12.40;;
58661;SDS011;44432;49.786;22.760;2023-11-19T11:48:12;12.00;;;8.70;;
58661;SDS011;44432;49.786;22.760;2023-11-19T11:50:52;14.00;;;9.70;;
58661;SDS011;44432;49.786;22.760;2023-11-19T11:53:25;13.10;;;8.80;;
58661;SDS011;44432;49.786;22.760;2023-11-19T11:55:54;12.80;;;9.40;;
58661;SDS011;44432;49.786;22.760;2023-11-19T11:58:29;13.00;;;8.60;;
58661;SDS011;44432;49.786;22.760;2023-11-19T12:01:03;14.80;;;10.20;;
58661;SDS011;44432;49.786;22.760;2023-11-19T12:03:34;14.40;;;10.00;;
58661;SDS011;44432;49.786;22.760;2023-11-19T12:06:06;23.70;;;14.90;;
58661;SDS011;44432;49.786;22.760;2023-11-19T12:08:35;18.70;;;12.50;;
58661;SDS011;44432;49.786;22.760;2023-11-19T12:11:04;15.50;;;11.40;;
58661;SDS011;44432;49.786;22.760;2023-11-19T12:13:47;37.00;;;24.30;;
58661;SDS011;44432;49.786;22.760;2023-11-19T12:16:22;20.60;;;14.60;;
58661;SDS011;44432;49.786;22.760;2023-11-19T12:18:51;23.60;;;17.00;;
58661;SDS011;44432;49.786;22.760;2023-11-19T12:21:29;15.60;;;11.80;;
58661;SDS011;44432;49.786;22.760;2023-11-19T12:23:59;23.30;;;15.20;;
58661;SDS011;44432;49.786;22.760;2023-11-19T12:26:34;20.80;;;13.80;;
58661;SDS011;44432;49.786;22.760;2023-11-19T12:29:04;21.60;;;15.10;;
58661;SDS011;44432;49.786;22.760;2023-11-19T12:31:33;19.60;;;14.00;;
58661;SDS011;44432;49.786;22.760;2023-11-19T12:34:08;25.70;;;17.20;;
58661;SDS011;44432;49.786;22.760;2023-11-19T12:36:40;18.30;;;12.60;;
58661;SDS011;44432;49.786;22.760;2023-11-19T12:39:09;18.10;;;12.00;;
58661;SDS011;44432;49.786;22.760;2023-11-19T12:41:50;16.70;;;11.50;;
58661;SDS011;44432;49.786;22.760;2023-11-19T12:44:19;19.30;;;14.20;;
58661;SDS011;44432;49.786;22.760;2023-11-19T12:46:54;22.70;;;14.90;;
58661;SDS011;44432;49.786;22.760;2023-11-19T12:49:27;19.40;;;13.20;;
58661;SDS011;44432;49.786;22.760;2023-11-19T12:51:55;15.80;;;10.10;;
58661;SDS011;44432;49.786;22.760;2023-11-19T12:54:34;20.60;;;13.20;;
58661;SDS011;44432;49.786;22.760;2023-11-19T12:57:03;14.60;;;10.80;;
58661;SDS011;44432;49.786;22.760;2023-11-19T12:59:32;22.00;;;14.20;;
58661;SDS011;44432;49.786;22.760;2023-11-19T13:02:00;20.50;;;14.60;;
58661;SDS011;44432;49.786;22.760;2023-11-19T13:04:32;14.60;;;10.00;;
58661;SDS011;44432;49.786;22.760;2023-11-19T13:07:01;15.40;;;10.90;;
58661;SDS011;44432;49.786;22.760;2023-11-19T13:09:31;18.00;;;12.50;;
58661;SDS011;44432;49.786;22.760;2023-11-19T13:11:59;19.50;;;13.00;;
58661;SDS011;44432;49.786;22.760;2023-11-19T13:14:41;21.60;;;13.10;;
58661;SDS011;44432;49.786;22.760;2023-11-19T13:17:13;21.60;;;13.80;;
58661;SDS011;44432;49.786;22.760;2023-11-19T13:19:42;20.90;;;13.70;;
58661;SDS011;44432;49.786;22.760;2023-11-19T13:22:10;29.60;;;19.10;;
58661;SDS011;44432;49.786;22.760;2023-11-19T13:24:38;29.30;;;18.70;;
58661;SDS011;44432;49.786;22.760;2023-11-19T13:27:09;27.90;;;17.80;;
58661;SDS011;44432;49.786;22.760;2023-11-19T13:29:37;29.60;;;16.70;;
58661;SDS011;44432;49.786;22.760;2023-11-19T13:32:06;27.00;;;17.10;;
58661;SDS011;44432;49.786;22.760;2023-11-19T13:34:34;23.80;;;15.10;;
58661;SDS011;44432;49.786;22.760;2023-11-19T13:37:03;22.00;;;12.50;;
58661;SDS011;44432;49.786;22.760;2023-11-19T13:39:31;21.50;;;14.30;;
58661;SDS011;44432;49.786;22.760;2023-11-19T13:42:00;24.10;;;16.60;;
58661;SDS011;44432;49.786;22.760;2023-11-19T13:44:28;27.90;;;17.40;;
58661;SDS011;44432;49.786;22.760;2023-11-19T13:46:57;19.60;;;13.20;;
58661;SDS011;44432;49.786;22.760;2023-11-19T13:49:25;27.40;;;14.90;;
58661;SDS011;44432;49.786;22.760;2023-11-19T13:51:54;26.60;;;16.00;;
58661;SDS011;44432;49.786;22.760;2023-11-19T13:54:22;25.30;;;14.80;;
58661;SDS011;44432;49.786;22.760;2023-11-19T13:56:50;23.30;;;12.80;;
58661;SDS011;44432;49.786;22.760;2023-11-19T13:59:24;17.20;;;11.80;;
58661;SDS011;44432;49.786;22.760;2023-11-19T14:01:52;16.50;;;10.20;;
58661;SDS011;44432;49.786;22.760;2023-11-19T14:04:21;21.50;;;11.60;;
58661;SDS011;44432;49.786;22.760;2023-11-19T14:06:50;26.40;;;14.30;;
58661;SDS011;44432;49.786;22.760;2023-11-19T14:09:18;31.00;;;17.90;;
58661;SDS011;44432;49.786;22.760;2023-11-19T14:11:47;54.00;;;30.90;;
58661;SDS011;44432;49.786;22.760;2023-11-19T14:14:17;46.10;;;27.80;;
58661;SDS011;44432;49.786;22.760;2023-11-19T14:16:46;39.00;;;23.00;;
58661;SDS011;44432;49.786;22.760;2023-11-19T14:19:14;39.90;;;23.80;;
58661;SDS011;44432;49.786;22.760;2023-11-19T14:21:44;27.20;;;17.20;;
58661;SDS011;44432;49.786;22.760;2023-11-19T14:24:18;31.80;;;17.80;;